Airfield :
LOGIN :

Register | Disclaimer

   EN    FR    IT 

 










Legend :    VFR   Marginal VFR   IFR   Intensive IFR   Very Intensive IFR
Visi :
Ceiling :
>= 8 km
>= 3000ft
5 to 8 km
1000 to 3000 ft
1500m to 5 km
500 to 1000 ft
800 to 1500m
200 to 500 ft
< 800m
< 200 ft
Symbols :   Thunderstorms  Fog  Heavy snow  Heavy precipitations  Wind > 20 kt
SIGMETs :     Misc.  Thunderstorms  Icing  Turbulence  Mountain Waves  Volcanic Ashes






- Airport Elevation : 75 ft
- IATA code : YEO


EGDY - RNAS Yeovilton

CURRENT METAR :
  • 021920Z 32009KT CAVOK 21/09 Q1015 NOSIG RMK BLU BLU

EXPIRED METARs :
  • 021850Z 31010KT CAVOK 22/10 Q1015 NOSIG RMK BLU BLU
  • 021820Z 31012KT CAVOK 23/11 Q1015 NOSIG RMK BLU BLU
  • 021750Z 31014KT CAVOK 23/10 Q1015 NOSIG RMK BLU BLU
  • 021721Z 32012KT CAVOK 23/10 Q1016 NOSIG RMK BLU BLU
  • 021650Z 30013KT CAVOK 24/10 Q1016 NOSIG RMK BLU BLU

TAF TAF EGDY
Valid from the 02 at 18:00 until the 03 at 03:00 UTC


021628Z 0218/0303 30010KT CAVOK
BECMG 0222/0224 VRB03KT
TEMPO 0301/0303 30010KT 6000 RA SCT007
PROB40 0302/0303 1500 BR BKN006



MET'MAP, your aeronautical weather chart ! - Copyright ORBIFLY December 2007 - Disclaimer

ORBIFLY MET'MAP TEAM :

Programming & Development : Alexandra Zaïnal
Concept & original design : Baudouin d'Aumeries
Assistance for programming : Marc-Olivier Méhu
Technical & hardware support : Manuel Goepfert

Contact : metmap@orbifly.com




SOURCES & CREDITS :

   NOAA